Time;durP1;ratioP1;P1;durP2;ratioP2;P2;SDS_P1;SDS_P2;PMS_P1;PMS_P2;Temp;Humidity;BMP_temperature;BMP_pressure;BME280_temperature;BME280_humidity;BME280_pressure;Samples;Min_cycle;Max_cycle;Signal;HPM_P1;HPM_P2
2022/11/18 00:01:31;;;;;;;;;7.50;7.00;;;;;;;;114911;1207;25639;-66
2022/11/18 00:04:00;;;;;;;;;7.50;6.00;;;;;;;;114899;1200;24966;-67
2022/11/18 00:06:29;;;;;;;;;4.00;4.00;;;;;;;;114838;1208;24986;-62
2022/11/18 00:08:59;;;;;;;;;7.00;5.00;;;;;;;;114820;1200;24828;-61
2022/11/18 00:14:19;;;;;;;;;4.67;4.67;;;;;;;;114837;1203;24994;-61
2022/11/18 00:17:00;;;;;;;;;6.50;6.50;;;;;;;;114788;1203;25648;-62
2022/11/18 00:19:33;;;;;;;;;4.00;4.00;;;;;;;;114895;1203;25444;-61
2022/11/18 00:22:02;;;;;;;;;3.00;3.00;;;;;;;;114969;1203;24837;-62
2022/11/18 00:24:31;;;;;;;;;7.00;5.00;;;;;;;;114970;1196;25660;-68
2022/11/18 00:26:59;;;;;;;;;6.00;6.00;;;;;;;;114916;1203;25225;-66
2022/11/18 00:29:29;;;;;;;;;4.00;4.00;;;;;;;;114772;1204;24998;-64
2022/11/18 00:31:58;;;;;;;;;5.00;3.33;;;;;;;;114773;1202;25312;-60
2022/11/18 00:34:26;;;;;;;;;5.00;4.00;;;;;;;;114750;1208;25180;-61
2022/11/18 00:36:55;;;;;;;;;6.00;6.00;;;;;;;;114806;1206;25163;-61
2022/11/18 00:39:24;;;;;;;;;5.00;5.00;;;;;;;;114771;1206;25169;-61
2022/11/18 00:44:40;;;;;;;;;6.00;6.00;;;;;;;;114904;1200;25513;-61
2022/11/18 00:47:08;;;;;;;;;5.00;5.00;;;;;;;;114937;1206;25781;-61
2022/11/18 00:49:37;;;;;;;;;6.00;3.00;;;;;;;;114941;1200;25146;-61
2022/11/18 00:52:05;;;;;;;;;5.00;5.00;;;;;;;;114938;1206;25220;-61
2022/11/18 00:54:33;;;;;;;;;7.00;7.00;;;;;;;;114932;1199;24864;-61
2022/11/18 00:57:04;;;;;;;;;5.00;4.00;;;;;;;;114893;1200;25041;-61
2022/11/18 00:59:33;;;;;;;;;2.67;2.67;;;;;;;;114946;1203;25206;-61
2022/11/18 01:02:01;;;;;;;;;5.00;5.00;;;;;;;;114960;1206;24900;-61
2022/11/18 01:04:29;;;;;;;;;5.67;5.67;;;;;;;;114855;1203;24945;-61
2022/11/18 01:06:58;;;;;;;;;6.00;5.00;;;;;;;;114939;1203;25442;-61
2022/11/18 01:09:26;;;;;;;;;6.00;5.00;;;;;;;;114925;1203;25958;-61
2022/11/18 01:14:42;;;;;;;;;5.00;5.00;;;;;;;;114962;1204;25454;-61
2022/11/18 01:17:10;;;;;;;;;6.00;4.00;;;;;;;;114925;1206;24866;-61
2022/11/18 01:19:39;;;;;;;;;7.00;6.00;;;;;;;;114921;1201;25654;-61
2022/11/18 01:22:07;;;;;;;;;4.00;4.00;;;;;;;;114932;1203;24788;-61
2022/11/18 01:24:38;;;;;;;;;4.67;4.67;;;;;;;;114921;1203;26465;-61
2022/11/18 01:27:07;;;;;;;;;5.00;5.00;;;;;;;;114872;1208;24771;-61
2022/11/18 01:29:35;;;;;;;;;4.00;2.33;;;;;;;;114902;1203;25601;-62
2022/11/18 01:32:04;;;;;;;;;4.33;4.33;;;;;;;;114880;1208;25563;-60
2022/11/18 01:34:53;;;;;;;;;5.25;5.25;;;;;;;;114826;1208;25267;-60
2022/11/18 01:37:21;;;;;;;;;4.00;4.00;;;;;;;;114928;1200;25341;-61
2022/11/18 01:39:50;;;;;;;;;7.00;5.25;;;;;;;;114905;1206;25484;-60
2022/11/18 01:42:18;;;;;;;;;4.00;4.00;;;;;;;;114917;1200;25112;-60
2022/11/18 01:45:03;;;;;;;;;4.67;4.67;;;;;;;;114932;1203;25382;-61
2022/11/18 01:47:39;;;;;;;;;4.33;3.67;;;;;;;;114966;1200;25376;-60
2022/11/18 01:50:09;;;;;;;;;5.33;5.33;;;;;;;;114982;1196;24740;-60
2022/11/18 01:52:38;;;;;;;;;4.00;3.00;;;;;;;;114983;1193;24819;-60
2022/11/18 01:55:12;;;;;;;;;3.00;3.00;;;;;;;;114882;1205;25594;-60
2022/11/18 01:57:41;;;;;;;;;4.00;4.00;;;;;;;;114965;1200;25405;-60
2022/11/18 02:00:10;;;;;;;;;6.25;4.00;;;;;;;;114922;1197;25311;-60
2022/11/18 02:02:38;;;;;;;;;5.00;5.00;;;;;;;;114918;1203;26259;-60
2022/11/18 02:05:09;;;;;;;;;5.00;5.00;;;;;;;;114889;1197;25303;-60
2022/11/18 02:07:40;;;;;;;;;4.00;4.00;;;;;;;;114970;1193;24922;-61
2022/11/18 02:10:17;;;;;;;;;5.00;5.00;;;;;;;;114945;1200;24805;-60
2022/11/18 02:12:46;;;;;;;;;5.00;4.00;;;;;;;;114960;1203;25173;-61
2022/11/18 02:15:16;;;;;;;;;4.00;4.00;;;;;;;;114998;1200;25432;-61
2022/11/18 02:17:56;;;;;;;;;4.00;4.00;;;;;;;;114894;1200;25209;-61
2022/11/18 02:20:29;;;;;;;;;5.00;4.00;;;;;;;;114927;1199;25731;-60
2022/11/18 02:23:29;;;;;;;;;2.50;2.50;;;;;;;;114871;1207;25850;-61
2022/11/18 02:26:27;;;;;;;;;4.50;4.50;;;;;;;;114924;1200;24756;-61
2022/11/18 02:29:03;;;;;;;;;7.00;4.00;;;;;;;;114896;1200;25100;-61
2022/11/18 02:31:36;;;;;;;;;7.00;5.50;;;;;;;;114874;1208;24686;-61
2022/11/18 02:34:15;;;;;;;;;6.00;6.00;;;;;;;;114910;1200;24837;-61
2022/11/18 02:36:49;;;;;;;;;3.00;3.00;;;;;;;;114926;1203;25741;-60
2022/11/18 02:39:37;;;;;;;;;4.50;4.50;;;;;;;;114912;1206;25722;-61
2022/11/18 02:42:09;;;;;;;;;7.00;4.67;;;;;;;;114887;1206;24830;-60
2022/11/18 02:44:41;;;;;;;;;6.67;5.33;;;;;;;;114931;1205;24962;-61
2022/11/18 02:47:12;;;;;;;;;5.00;5.00;;;;;;;;114920;1202;25595;-61
2022/11/18 02:49:44;;;;;;;;;5.00;5.00;;;;;;;;114930;1200;25271;-61
2022/11/18 02:52:14;;;;;;;;;5.00;5.00;;;;;;;;114933;1200;25607;-61
2022/11/18 02:54:45;;;;;;;;;5.00;5.00;;;;;;;;114869;1203;24869;-61
2022/11/18 02:57:14;;;;;;;;;3.00;3.00;;;;;;;;114889;1206;25850;-61
2022/11/18 02:59:43;;;;;;;;;6.00;5.00;;;;;;;;114960;1200;25767;-61
2022/11/18 03:02:15;;;;;;;;;5.50;5.00;;;;;;;;114932;1200;25605;-60
2022/11/18 03:04:45;;;;;;;;;5.00;5.00;;;;;;;;114950;1203;24913;-60
2022/11/18 03:07:30;;;;;;;;;3.00;3.00;;;;;;;;114914;1208;25447;-61
2022/11/18 03:09:59;;;;;;;;;7.00;5.00;;;;;;;;114873;1200;25165;-62
2022/11/18 03:12:48;;;;;;;;;3.00;3.00;;;;;;;;114911;1197;25355;-61
2022/11/18 03:15:47;;;;;;;;;4.50;4.50;;;;;;;;114951;1206;25053;-61
2022/11/18 03:18:22;;;;;;;;;9.00;6.00;;;;;;;;114804;1204;26043;-60
2022/11/18 03:20:57;;;;;;;;;8.00;6.00;;;;;;;;114802;1200;24840;-61
2022/11/18 03:23:35;;;;;;;;;6.33;5.67;;;;;;;;114769;1206;25775;-60
2022/11/18 03:26:30;;;;;;;;;4.50;4.50;;;;;;;;114904;1200;24808;-61
2022/11/18 03:29:28;;;;;;;;;3.00;3.00;;;;;;;;114917;1208;25037;-64
2022/11/18 03:32:09;;;;;;;;;5.00;5.00;;;;;;;;114880;1203;25312;-62
2022/11/18 03:34:42;;;;;;;;;5.00;4.67;;;;;;;;114910;1203;24949;-64
2022/11/18 03:37:13;;;;;;;;;6.00;6.00;;;;;;;;114884;1200;25380;-63
2022/11/18 03:39:46;;;;;;;;;4.67;4.67;;;;;;;;114878;1196;25692;-62
2022/11/18 03:42:48;;;;;;;;;8.00;5.00;;;;;;;;114876;1206;26243;-62
2022/11/18 03:45:31;;;;;;;;;10.00;5.50;;;;;;;;114724;1198;25569;-61
2022/11/18 03:48:06;;;;;;;;;4.50;4.00;;;;;;;;114948;1206;25351;-60
2022/11/18 03:50:38;;;;;;;;;6.00;5.00;;;;;;;;114925;1200;25246;-60
2022/11/18 03:53:08;;;;;;;;;5.33;5.00;;;;;;;;114914;1204;25266;-59
2022/11/18 03:55:39;;;;;;;;;1.33;1.33;;;;;;;;114880;1206;24797;-60
2022/11/18 03:58:29;;;;;;;;;6.00;6.00;;;;;;;;114935;1193;25616;-58
2022/11/18 04:01:04;;;;;;;;;4.00;4.00;;;;;;;;114897;1205;25356;-69
2022/11/18 04:03:32;;;;;;;;;6.00;6.00;;;;;;;;114879;1196;25695;-69
2022/11/18 04:06:09;;;;;;;;;4.00;4.00;;;;;;;;114879;1200;25944;-62
2022/11/18 04:08:39;;;;;;;;;4.00;4.00;;;;;;;;114896;1200;26038;-59
2022/11/18 04:12:01;;;;;;;;;6.00;5.00;;;;;;;;114900;1203;25105;-58
2022/11/18 04:14:06;;;;;;;;;5.00;5.00;;;;;;;;114922;1203;25693;-61
2022/11/18 04:16:42;;;;;;;;;5.00;4.67;;;;;;;;114964;1200;24954;-60
2022/11/18 04:19:10;;;;;;;;;4.00;3.00;;;;;;;;114882;1200;24993;-59
2022/11/18 04:21:39;;;;;;;;;6.00;5.00;;;;;;;;114955;1200;24944;-60
2022/11/18 04:24:08;;;;;;;;;4.00;4.00;;;;;;;;114922;1203;25348;-59
2022/11/18 04:26:36;;;;;;;;;5.00;5.00;;;;;;;;114938;1200;25447;-60
2022/11/18 04:29:04;;;;;;;;;6.00;4.33;;;;;;;;114958;1203;24774;-59
2022/11/18 04:31:33;;;;;;;;;5.67;5.33;;;;;;;;114963;1200;25239;-59
2022/11/18 04:34:01;;;;;;;;;7.00;6.00;;;;;;;;114922;1203;25457;-58
2022/11/18 04:36:29;;;;;;;;;8.00;6.00;;;;;;;;114925;1207;25524;-59
2022/11/18 04:38:58;;;;;;;;;5.00;5.00;;;;;;;;114902;1200;24944;-60
2022/11/18 04:44:13;;;;;;;;;6.00;6.00;;;;;;;;114960;1200;25157;-61
2022/11/18 04:46:42;;;;;;;;;7.50;7.50;;;;;;;;114925;1203;25411;-61
2022/11/18 04:49:13;;;;;;;;;5.00;4.00;;;;;;;;114925;1203;25150;-61
2022/11/18 04:51:43;;;;;;;;;6.00;6.00;;;;;;;;114899;1202;25327;-61
2022/11/18 04:54:12;;;;;;;;;6.67;6.00;;;;;;;;114858;1202;25581;-62
2022/11/18 04:56:41;;;;;;;;;7.50;7.00;;;;;;;;114871;1199;25578;-61
2022/11/18 04:59:18;;;;;;;;;8.00;5.00;;;;;;;;114838;1203;25163;-62
2022/11/18 05:01:48;;;;;;;;;7.00;6.00;;;;;;;;114868;1203;24995;-62
2022/11/18 05:04:21;;;;;;;;;6.00;4.00;;;;;;;;114908;1203;25559;-62
2022/11/18 05:06:50;;;;;;;;;6.50;5.00;;;;;;;;114933;1197;24882;-62
2022/11/18 05:09:19;;;;;;;;;7.00;6.00;;;;;;;;114926;1202;25753;-66
2022/11/18 05:14:35;;;;;;;;;13.00;12.00;;;;;;;;114945;1205;25255;-63
2022/11/18 05:17:06;;;;;;;;;25.00;15.00;;;;;;;;114913;1206;25636;-65
2022/11/18 05:19:37;;;;;;;;;30.00;20.00;;;;;;;;114911;1203;25794;-67
2022/11/18 05:22:06;;;;;;;;;26.00;18.00;;;;;;;;114928;1205;24887;-64
2022/11/18 05:24:34;;;;;;;;;22.00;13.00;;;;;;;;114965;1201;25053;-64
2022/11/18 05:27:02;;;;;;;;;20.50;17.00;;;;;;;;114882;1208;24703;-62
2022/11/18 05:29:32;;;;;;;;;16.00;6.00;;;;;;;;114930;1202;25714;-63
2022/11/18 05:32:00;;;;;;;;;21.00;15.50;;;;;;;;114902;1200;25712;-64
2022/11/18 05:34:29;;;;;;;;;14.00;13.00;;;;;;;;114966;1203;25025;-64
2022/11/18 05:36:57;;;;;;;;;19.00;15.00;;;;;;;;114868;1204;24999;-66
2022/11/18 05:39:25;;;;;;;;;24.00;13.50;;;;;;;;114863;1200;25041;-65
2022/11/18 05:44:41;;;;;;;;;13.00;10.00;;;;;;;;114951;1200;25252;-65
2022/11/18 05:47:10;;;;;;;;;14.50;12.00;;;;;;;;114879;1200;25038;-61
2022/11/18 05:49:38;;;;;;;;;12.00;9.00;;;;;;;;114906;1204;25144;-63
2022/11/18 05:52:06;;;;;;;;;21.00;14.00;;;;;;;;114827;1206;25026;-62
2022/11/18 05:54:38;;;;;;;;;24.50;16.00;;;;;;;;114830;1195;25551;-62
2022/11/18 05:57:07;;;;;;;;;12.00;10.00;;;;;;;;114885;1206;25268;-63
2022/11/18 05:59:35;;;;;;;;;12.00;11.00;;;;;;;;114825;1203;25107;-63
2022/11/18 06:02:14;;;;;;;;;16.50;14.00;;;;;;;;114931;1203;24960;-63
2022/11/18 06:04:51;;;;;;;;;20.00;13.00;;;;;;;;114836;1208;25293;-62
2022/11/18 06:07:23;;;;;;;;;13.00;8.50;;;;;;;;114914;1203;25165;-62
2022/11/18 06:09:56;;;;;;;;;17.00;12.00;;;;;;;;114918;1203;25500;-62
2022/11/18 06:12:37;;;;;;;;;17.00;11.00;;;;;;;;114888;1203;25188;-62
2022/11/18 06:15:14;;;;;;;;;19.67;11.67;;;;;;;;114858;1200;25255;-62
2022/11/18 06:17:46;;;;;;;;;17.50;11.00;;;;;;;;114897;1200;25762;-62
2022/11/18 06:20:18;;;;;;;;;13.00;11.00;;;;;;;;114813;1200;25616;-62
2022/11/18 06:22:49;;;;;;;;;15.00;11.00;;;;;;;;114884;1200;25528;-62
2022/11/18 06:25:18;;;;;;;;;17.00;12.00;;;;;;;;114889;1203;26380;-61
2022/11/18 06:27:48;;;;;;;;;17.00;13.00;;;;;;;;114887;1203;25049;-61
2022/11/18 06:30:17;;;;;;;;;13.00;12.00;;;;;;;;114876;1196;25118;-61
2022/11/18 06:32:45;;;;;;;;;12.50;10.00;;;;;;;;114834;1206;25937;-61
2022/11/18 06:35:14;;;;;;;;;14.00;11.50;;;;;;;;114912;1208;25325;-62
2022/11/18 06:37:42;;;;;;;;;12.50;10.50;;;;;;;;114872;1200;25183;-61
2022/11/18 06:40:11;;;;;;;;;17.00;11.00;;;;;;;;114881;1206;24917;-62
2022/11/18 06:45:27;;;;;;;;;11.00;10.00;;;;;;;;114931;1200;25562;-62
2022/11/18 06:47:57;;;;;;;;;10.67;8.33;;;;;;;;114902;1200;25629;-62
2022/11/18 06:50:28;;;;;;;;;11.00;11.00;;;;;;;;114887;1206;25303;-62
2022/11/18 06:52:59;;;;;;;;;8.00;8.00;;;;;;;;114845;1200;25521;-62
2022/11/18 06:55:27;;;;;;;;;15.00;9.00;;;;;;;;114928;1205;25609;-62
2022/11/18 06:57:56;;;;;;;;;12.50;12.00;;;;;;;;114951;1205;25246;-63
2022/11/18 07:00:24;;;;;;;;;10.00;9.00;;;;;;;;114860;1208;25641;-65
2022/11/18 07:02:52;;;;;;;;;9.00;9.00;;;;;;;;114831;1205;25510;-62
2022/11/18 07:05:21;;;;;;;;;9.50;9.50;;;;;;;;114875;1203;25470;-62
2022/11/18 07:07:49;;;;;;;;;14.33;12.00;;;;;;;;114913;1200;25472;-62
2022/11/18 07:10:18;;;;;;;;;8.00;8.00;;;;;;;;114918;1203;25434;-62
2022/11/18 07:12:46;;;;;;;;;11.00;10.50;;;;;;;;114885;1200;25468;-62
2022/11/18 07:15:15;;;;;;;;;11.33;8.67;;;;;;;;114901;1206;25381;-62
2022/11/18 07:17:43;;;;;;;;;8.00;8.00;;;;;;;;114921;1197;24863;-62
2022/11/18 07:20:12;;;;;;;;;12.00;9.00;;;;;;;;114903;1203;25674;-62
2022/11/18 07:22:40;;;;;;;;;11.00;9.00;;;;;;;;114868;1200;25309;-62
2022/11/18 07:25:09;;;;;;;;;12.00;10.00;;;;;;;;114880;1206;25228;-63
2022/11/18 07:27:37;;;;;;;;;10.00;7.50;;;;;;;;114973;1203;25460;-64
2022/11/18 07:30:06;;;;;;;;;14.00;12.00;;;;;;;;114872;1200;25317;-64
2022/11/18 07:32:34;;;;;;;;;8.00;8.00;;;;;;;;114909;1203;24704;-62
2022/11/18 07:35:03;;;;;;;;;10.00;10.00;;;;;;;;114937;1207;24808;-62
2022/11/18 07:37:31;;;;;;;;;14.00;11.00;;;;;;;;114817;1200;25563;-66
2022/11/18 07:40:00;;;;;;;;;10.67;9.33;;;;;;;;114918;1200;25279;-65
2022/11/18 07:42:41;;;;;;;;;13.00;10.67;;;;;;;;114859;1208;25279;-63
2022/11/18 07:45:10;;;;;;;;;11.00;9.50;;;;;;;;114909;1198;24755;-63
2022/11/18 07:47:39;;;;;;;;;14.00;11.00;;;;;;;;114907;1200;25637;-62
2022/11/18 07:50:07;;;;;;;;;11.00;11.00;;;;;;;;114830;1200;25379;-62
2022/11/18 07:52:36;;;;;;;;;16.00;10.67;;;;;;;;114836;1208;24688;-61
2022/11/18 07:55:05;;;;;;;;;12.00;7.00;;;;;;;;114852;1207;25456;-62
2022/11/18 07:57:33;;;;;;;;;9.00;9.00;;;;;;;;114852;1201;25857;-62
2022/11/18 08:00:03;;;;;;;;;12.50;8.50;;;;;;;;114796;1206;26250;-62
2022/11/18 08:02:31;;;;;;;;;10.00;9.00;;;;;;;;114846;1199;25268;-63
2022/11/18 08:05:00;;;;;;;;;8.67;8.67;;;;;;;;114877;1203;25404;-63
2022/11/18 08:07:28;;;;;;;;;12.00;12.00;;;;;;;;114810;1200;26236;-62
2022/11/18 08:09:57;;;;;;;;;12.00;11.00;;;;;;;;114854;1200;26340;-61
2022/11/18 08:12:25;;;;;;;;;10.00;9.00;;;;;;;;114870;1203;25074;-62
2022/11/18 08:14:53;;;;;;;;;11.00;11.00;;;;;;;;114870;1208;25558;-62
2022/11/18 08:17:22;;;;;;;;;9.50;9.50;;;;;;;;114894;1200;24927;-63
2022/11/18 08:19:50;;;;;;;;;11.00;11.00;;;;;;;;114914;1200;25955;-61
2022/11/18 08:22:19;;;;;;;;;8.50;8.50;;;;;;;;114891;1200;25423;-63
2022/11/18 08:24:48;;;;;;;;;11.67;11.33;;;;;;;;114911;1203;25224;-63
2022/11/18 08:27:16;;;;;;;;;8.67;6.33;;;;;;;;114952;1200;26071;-63
2022/11/18 08:29:44;;;;;;;;;15.00;10.00;;;;;;;;114915;1203;24731;-61
2022/11/18 08:32:13;;;;;;;;;7.00;7.00;;;;;;;;114928;1200;24833;-61
2022/11/18 08:34:41;;;;;;;;;13.00;8.00;;;;;;;;114940;1203;24870;-62
2022/11/18 08:37:10;;;;;;;;;10.67;10.67;;;;;;;;114899;1206;24959;-61
2022/11/18 08:39:38;;;;;;;;;11.00;9.50;;;;;;;;114919;1205;25238;-62
2022/11/18 08:42:08;;;;;;;;;14.00;11.00;;;;;;;;114946;1206;25528;-62
2022/11/18 08:44:36;;;;;;;;;15.00;9.00;;;;;;;;114873;1200;26171;-61
2022/11/18 08:47:05;;;;;;;;;12.50;11.50;;;;;;;;114901;1203;25680;-62
2022/11/18 08:49:33;;;;;;;;;11.00;10.00;;;;;;;;114918;1208;25153;-62
2022/11/18 08:52:02;;;;;;;;;11.33;10.00;;;;;;;;114904;1200;25628;-62
2022/11/18 08:54:30;;;;;;;;;15.00;10.00;;;;;;;;114915;1200;24753;-62
2022/11/18 08:56:59;;;;;;;;;14.00;10.00;;;;;;;;114799;1203;25673;-62
2022/11/18 08:59:27;;;;;;;;;9.00;9.00;;;;;;;;114848;1198;25496;-62
2022/11/18 09:01:56;;;;;;;;;10.00;9.00;;;;;;;;114919;1203;25317;-62
2022/11/18 09:04:24;;;;;;;;;8.00;7.00;;;;;;;;114884;1201;25001;-63
2022/11/18 09:06:56;;;;;;;;;7.00;6.00;;;;;;;;114988;1200;25534;-63
2022/11/18 09:09:24;;;;;;;;;13.00;11.00;;;;;;;;114836;1206;25201;-62
2022/11/18 09:11:53;;;;;;;;;11.00;10.00;;;;;;;;114937;1197;25032;-62
2022/11/18 09:14:21;;;;;;;;;11.50;11.00;;;;;;;;114824;1200;25409;-63
2022/11/18 09:17:11;;;;;;;;;15.00;11.50;;;;;;;;114891;1208;25571;-62
2022/11/18 09:19:40;;;;;;;;;13.00;11.00;;;;;;;;114966;1208;25314;-62
2022/11/18 09:22:15;;;;;;;;;10.00;8.00;;;;;;;;114949;1203;25160;-62
2022/11/18 09:24:44;;;;;;;;;11.50;10.50;;;;;;;;114902;1200;25069;-62
2022/11/18 09:27:12;;;;;;;;;10.00;7.67;;;;;;;;114884;1206;25663;-62
2022/11/18 09:29:44;;;;;;;;;9.50;9.50;;;;;;;;114905;1200;24987;-61
2022/11/18 09:32:13;;;;;;;;;15.00;12.00;;;;;;;;114908;1200;24834;-62
2022/11/18 09:34:41;;;;;;;;;11.00;11.00;;;;;;;;114901;1204;25280;-62
2022/11/18 09:37:10;;;;;;;;;8.50;8.50;;;;;;;;114934;1203;24724;-61
2022/11/18 09:39:38;;;;;;;;;12.67;10.00;;;;;;;;114931;1200;26117;-62
2022/11/18 09:42:21;;;;;;;;;8.50;8.00;;;;;;;;114957;1200;25543;-62
2022/11/18 09:45:17;;;;;;;;;11.33;10.33;;;;;;;;114950;1208;25380;-62
2022/11/18 09:47:58;;;;;;;;;11.67;9.33;;;;;;;;114902;1195;25434;-63
2022/11/18 09:50:26;;;;;;;;;14.00;12.50;;;;;;;;114883;1203;25558;-62
2022/11/18 09:53:19;;;;;;;;;14.00;12.00;;;;;;;;114954;1197;25524;-62
2022/11/18 09:55:49;;;;;;;;;13.00;10.00;;;;;;;;114951;1203;25577;-61
2022/11/18 09:58:21;;;;;;;;;16.00;11.00;;;;;;;;114888;1208;25355;-61
2022/11/18 10:00:50;;;;;;;;;10.50;8.50;;;;;;;;114881;1206;25153;-62
2022/11/18 10:03:32;;;;;;;;;10.50;10.00;;;;;;;;114895;1200;25183;-62
2022/11/18 10:06:06;;;;;;;;;13.00;9.00;;;;;;;;114902;1197;24923;-62
2022/11/18 10:08:43;;;;;;;;;14.00;10.00;;;;;;;;114962;1203;24730;-61
2022/11/18 10:11:24;;;;;;;;;13.00;12.00;;;;;;;;114918;1200;25074;-61
2022/11/18 10:14:21;;;;;;;;;15.00;15.00;;;;;;;;114846;1208;25221;-61
2022/11/18 10:17:20;;;;;;;;;13.00;12.00;;;;;;;;114887;1203;25263;-61
2022/11/18 10:20:05;;;;;;;;;11.50;10.00;;;;;;;;114890;1207;25052;-62
2022/11/18 10:22:54;;;;;;;;;18.00;9.50;;;;;;;;114935;1207;25072;-62
2022/11/18 10:25:22;;;;;;;;;17.00;12.00;;;;;;;;114865;1208;25615;-64
2022/11/18 10:27:51;;;;;;;;;13.00;11.00;;;;;;;;114989;1200;25329;-65
2022/11/18 10:30:22;;;;;;;;;13.33;13.00;;;;;;;;114839;1203;24754;-67
2022/11/18 10:33:04;;;;;;;;;10.50;10.50;;;;;;;;114915;1200;25383;-62
2022/11/18 10:35:33;;;;;;;;;13.00;12.50;;;;;;;;114956;1200;25085;-61
2022/11/18 10:38:13;;;;;;;;;20.00;14.00;;;;;;;;114933;1198;25263;-62
2022/11/18 10:41:06;;;;;;;;;16.00;13.00;;;;;;;;114949;1203;25064;-62
2022/11/18 10:43:49;;;;;;;;;15.50;12.00;;;;;;;;114913;1198;25473;-61
2022/11/18 10:46:38;;;;;;;;;13.67;11.33;;;;;;;;114931;1204;25317;-61
2022/11/18 10:49:09;;;;;;;;;15.67;14.33;;;;;;;;114873;1203;26265;-61
2022/11/18 10:51:41;;;;;;;;;14.33;11.33;;;;;;;;114919;1203;26104;-61
2022/11/18 10:54:17;;;;;;;;;17.00;12.00;;;;;;;;114948;1202;24652;-62
2022/11/18 10:56:51;;;;;;;;;19.00;9.00;;;;;;;;114937;1203;26315;-62
2022/11/18 10:59:49;;;;;;;;;19.00;15.00;;;;;;;;114929;1208;25107;-61
2022/11/18 11:02:21;;;;;;;;;20.00;16.00;;;;;;;;114880;1203;25389;-62
2022/11/18 11:04:50;;;;;;;;;19.00;17.00;;;;;;;;114909;1203;26174;-62
2022/11/18 11:07:33;;;;;;;;;13.00;10.00;;;;;;;;114880;1197;25630;-61
2022/11/18 11:10:14;;;;;;;;;15.50;15.50;;;;;;;;114942;1203;24757;-62
2022/11/18 11:12:48;;;;;;;;;20.00;16.00;;;;;;;;114943;1203;26331;-61
2022/11/18 11:15:28;;;;;;;;;20.00;15.00;;;;;;;;114893;1197;25560;-64
2022/11/18 11:20:52;;;;;;;;;18.00;17.00;;;;;;;;114940;1203;24713;-63
2022/11/18 11:23:23;;;;;;;;;19.00;16.00;;;;;;;;114921;1206;25302;-62
2022/11/18 11:26:06;;;;;;;;;15.00;14.00;;;;;;;;114892;1202;25520;-61
2022/11/18 11:29:03;;;;;;;;;18.00;15.00;;;;;;;;114942;1203;25687;-62
2022/11/18 11:31:37;;;;;;;;;18.67;15.00;;;;;;;;114926;1200;24814;-62
2022/11/18 11:34:15;;;;;;;;;21.00;16.50;;;;;;;;114919;1200;25752;-61
2022/11/18 11:37:08;;;;;;;;;17.00;16.00;;;;;;;;114952;1208;25407;-62
2022/11/18 11:40:07;;;;;;;;;27.50;18.00;;;;;;;;114901;1208;25314;-63
2022/11/18 11:42:54;;;;;;;;;22.00;17.00;;;;;;;;114977;1200;24752;-60
2022/11/18 11:45:35;;;;;;;;;20.00;15.00;;;;;;;;114934;1203;25369;-61
2022/11/18 11:48:26;;;;;;;;;17.50;14.50;;;;;;;;114918;1200;24827;-61
2022/11/18 11:50:59;;;;;;;;;16.50;16.00;;;;;;;;114827;1208;25657;-69
2022/11/18 11:54:07;;;;;;;;;19.00;19.00;;;;;;;;114960;1200;24914;-64
2022/11/18 11:56:48;;;;;;;;;19.00;16.50;;;;;;;;114892;1200;25278;-69
2022/11/18 11:59:48;;;;;;;;;21.00;18.00;;;;;;;;114966;1200;25085;-67
2022/11/18 12:02:54;;;;;;;;;22.00;16.00;;;;;;;;114910;1203;25469;-63
2022/11/18 12:05:35;;;;;;;;;18.00;14.00;;;;;;;;114736;1207;24779;-61
2022/11/18 12:08:16;;;;;;;;;21.00;18.00;;;;;;;;114882;1206;24991;-61
2022/11/18 12:11:06;;;;;;;;;19.00;16.00;;;;;;;;114837;1206;25273;-59
2022/11/18 12:14:05;;;;;;;;;21.00;16.00;;;;;;;;114847;1203;24674;-61
2022/11/18 12:16:42;;;;;;;;;18.00;16.00;;;;;;;;114884;1200;25074;-62
2022/11/18 12:19:16;;;;;;;;;22.00;19.50;;;;;;;;114878;1203;25028;-61
2022/11/18 12:21:44;;;;;;;;;17.00;16.50;;;;;;;;114868;1197;25179;-61
2022/11/18 12:24:29;;;;;;;;;26.00;18.00;;;;;;;;114916;1207;25036;-61
2022/11/18 12:27:09;;;;;;;;;24.50;19.50;;;;;;;;114920;1208;24969;-61
2022/11/18 12:29:49;;;;;;;;;23.00;18.00;;;;;;;;114867;1206;25413;-61
2022/11/18 12:32:27;;;;;;;;;20.50;15.50;;;;;;;;114921;1208;24674;-62
2022/11/18 12:35:18;;;;;;;;;22.00;16.50;;;;;;;;114869;1203;26109;-62
2022/11/18 12:37:52;;;;;;;;;19.00;17.00;;;;;;;;114928;1208;25389;-60
2022/11/18 12:40:53;;;;;;;;;17.00;17.00;;;;;;;;114935;1203;25320;-62
2022/11/18 12:46:33;;;;;;;;;25.00;21.00;;;;;;;;114881;1200;24701;-61
2022/11/18 12:49:20;;;;;;;;;21.00;18.00;;;;;;;;114893;1203;24904;-62
2022/11/18 12:51:50;;;;;;;;;25.00;18.00;;;;;;;;114845;1203;25614;-61
2022/11/18 12:54:30;;;;;;;;;20.50;20.00;;;;;;;;114872;1200;25746;-62
2022/11/18 12:57:12;;;;;;;;;20.00;18.00;;;;;;;;114894;1200;25337;-62
2022/11/18 12:59:40;;;;;;;;;20.00;15.00;;;;;;;;114915;1196;24940;-61
2022/11/18 13:02:15;;;;;;;;;12.00;11.00;;;;;;;;114938;1199;25566;-61
2022/11/18 13:04:44;;;;;;;;;21.50;17.50;;;;;;;;114956;1203;25188;-62
2022/11/18 13:10:23;;;;;;;;;28.00;20.00;;;;;;;;114894;1200;25548;-61
2022/11/18 13:12:51;;;;;;;;;26.50;20.00;;;;;;;;114955;1203;24637;-61
2022/11/18 13:18:17;;;;;;;;;18.00;17.00;;;;;;;;114904;1208;25715;-62
2022/11/18 13:23:50;;;;;;;;;22.00;17.00;;;;;;;;114899;1200;24865;-62
2022/11/18 13:23:59;;;;;;;;;22.00;20.00;;;;;;;;114909;1200;25601;-61
2022/11/18 13:26:30;;;;;;;;;26.00;21.00;;;;;;;;114938;1198;25430;-62
2022/11/18 13:29:28;;;;;;;;;23.00;19.00;;;;;;;;114888;1203;25174;-60
2022/11/18 13:32:22;;;;;;;;;19.50;18.50;;;;;;;;114873;1200;25529;-61
2022/11/18 13:34:53;;;;;;;;;26.00;23.00;;;;;;;;114879;1203;25066;-61
2022/11/18 13:37:27;;;;;;;;;22.67;18.00;;;;;;;;114901;1203;24662;-61
2022/11/18 13:39:56;;;;;;;;;24.00;22.00;;;;;;;;114873;1203;25302;-61
2022/11/18 13:42:27;;;;;;;;;26.00;19.00;;;;;;;;114915;1208;25473;-61
2022/11/18 13:44:56;;;;;;;;;28.33;23.00;;;;;;;;114869;1196;25563;-62
2022/11/18 13:47:46;;;;;;;;;26.00;24.50;;;;;;;;114995;1198;25163;-63
2022/11/18 13:50:34;;;;;;;;;24.00;19.00;;;;;;;;114926;1203;25630;-63
2022/11/18 13:53:12;;;;;;;;;22.50;19.00;;;;;;;;114863;1200;24749;-63
2022/11/18 13:55:47;;;;;;;;;24.33;20.67;;;;;;;;114910;1200;25030;-63
2022/11/18 13:58:18;;;;;;;;;23.00;20.00;;;;;;;;114914;1198;25559;-63
2022/11/18 14:01:01;;;;;;;;;28.50;24.50;;;;;;;;114917;1200;25120;-64
2022/11/18 14:03:49;;;;;;;;;20.67;20.33;;;;;;;;114912;1203;25267;-62
2022/11/18 14:06:37;;;;;;;;;27.00;19.67;;;;;;;;114959;1200;24682;-62
2022/11/18 14:09:23;;;;;;;;;24.67;22.67;;;;;;;;114936;1196;25515;-62
2022/11/18 14:12:06;;;;;;;;;24.00;19.00;;;;;;;;114904;1204;25472;-62
2022/11/18 14:14:37;;;;;;;;;25.00;23.00;;;;;;;;114916;1208;24911;-62
2022/11/18 14:17:18;;;;;;;;;24.00;20.00;;;;;;;;114929;1206;25491;-59
2022/11/18 14:19:49;;;;;;;;;22.00;17.00;;;;;;;;114945;1200;25620;-60
2022/11/18 14:22:31;;;;;;;;;31.00;25.50;;;;;;;;114984;1200;24894;-61
2022/11/18 14:25:16;;;;;;;;;21.00;21.00;;;;;;;;114921;1200;24820;-62
2022/11/18 14:27:55;;;;;;;;;26.50;21.50;;;;;;;;114921;1198;25349;-61
2022/11/18 14:30:34;;;;;;;;;23.00;20.00;;;;;;;;114931;1200;24950;-62
2022/11/18 14:33:13;;;;;;;;;25.00;24.00;;;;;;;;114958;1200;25647;-62
2022/11/18 14:35:46;;;;;;;;;26.00;20.50;;;;;;;;114871;1201;26060;-62
2022/11/18 14:38:24;;;;;;;;;22.00;20.00;;;;;;;;114860;1206;25079;-62
2022/11/18 14:41:15;;;;;;;;;26.50;21.00;;;;;;;;114838;1200;25649;-62
2022/11/18 14:43:44;;;;;;;;;26.33;19.33;;;;;;;;114881;1203;25180;-61
2022/11/18 14:46:17;;;;;;;;;27.00;20.50;;;;;;;;114905;1206;24732;-61
2022/11/18 14:48:46;;;;;;;;;26.00;18.00;;;;;;;;114898;1203;24935;-61
2022/11/18 14:51:15;;;;;;;;;24.00;18.50;;;;;;;;114974;1208;24790;-62
2022/11/18 14:53:44;;;;;;;;;19.50;16.00;;;;;;;;114887;1203;24792;-62
2022/11/18 14:56:19;;;;;;;;;23.00;22.00;;;;;;;;114948;1200;24961;-66
2022/11/18 14:58:47;;;;;;;;;23.50;22.00;;;;;;;;114863;1203;25145;-67
2022/11/18 15:01:16;;;;;;;;;20.00;18.00;;;;;;;;114865;1206;26221;-63
2022/11/18 15:03:45;;;;;;;;;18.00;18.00;;;;;;;;114859;1203;25258;-64
2022/11/18 15:06:14;;;;;;;;;20.00;20.00;;;;;;;;114897;1208;25169;-60
2022/11/18 15:08:45;;;;;;;;;27.50;20.00;;;;;;;;114911;1202;25274;-60
2022/11/18 15:11:13;;;;;;;;;25.00;18.50;;;;;;;;114824;1196;24723;-60
2022/11/18 15:13:42;;;;;;;;;24.00;18.00;;;;;;;;114935;1199;25293;-61
2022/11/18 15:16:22;;;;;;;;;26.50;19.50;;;;;;;;114833;1204;25066;-65
2022/11/18 15:18:53;;;;;;;;;18.67;17.33;;;;;;;;114870;1208;24840;-64
2022/11/18 15:21:23;;;;;;;;;17.00;17.00;;;;;;;;114946;1201;24745;-62
2022/11/18 15:23:51;;;;;;;;;15.00;14.50;;;;;;;;114941;1208;25189;-62
2022/11/18 15:26:22;;;;;;;;;22.00;17.00;;;;;;;;114900;1203;25914;-61
2022/11/18 15:28:52;;;;;;;;;19.00;16.00;;;;;;;;114925;1200;25449;-60